Time;durP1;ratioP1;P1;durP2;ratioP2;P2;SDS_P1;SDS_P2;PMS_P1;PMS_P2;Temp;Humidity;BMP_temperature;BMP_pressure;BME280_temperature;BME280_humidity;BME280_pressure;Samples;Min_cycle;Max_cycle;Signal;HPM_P1;HPM_P2
2023/09/16 00:00:09;;;;;;;0.30;0.30;;;12.90;99.90;;;;;;5089434;28;20528;-73
2023/09/16 00:02:38;;;;;;;0.80;0.80;;;12.80;99.90;;;;;;5092936;28;20048;-73
2023/09/16 00:05:04;;;;;;;0.60;0.60;;;12.80;99.90;;;;;;5090820;28;20044;-73
2023/09/16 00:07:34;;;;;;;0.55;0.55;;;12.80;99.90;;;;;;5091909;28;20083;-73
2023/09/16 00:09:59;;;;;;;0.43;0.43;;;12.70;99.90;;;;;;5087416;28;20079;-73
2023/09/16 00:12:25;;;;;;;0.43;0.43;;;12.70;99.90;;;;;;5093806;28;20075;-73
2023/09/16 00:14:52;;;;;;;0.40;0.40;;;12.70;99.90;;;;;;5090564;28;20044;-73
2023/09/16 00:17:17;;;;;;;0.40;0.40;;;12.60;99.90;;;;;;5094705;28;20047;-73
2023/09/16 00:19:44;;;;;;;0.35;0.35;;;12.60;99.90;;;;;;5087650;28;20591;-73
2023/09/16 00:22:10;;;;;;;0.40;0.40;;;12.60;99.90;;;;;;5097288;28;20086;-73
2023/09/16 00:24:40;;;;;;;0.30;0.30;;;12.50;99.90;;;;;;5087210;28;20087;-73
2023/09/16 00:27:07;;;;;;;0.20;0.20;;;12.50;99.90;;;;;;5092205;28;20046;-73
2023/09/16 00:29:34;;;;;;;0.30;0.30;;;12.50;99.90;;;;;;5089891;28;20870;-73
2023/09/16 00:32:04;;;;;;;0.70;0.70;;;12.50;99.90;;;;;;5085098;28;20373;-73
2023/09/16 00:34:30;;;;;;;0.68;0.52;;;12.40;99.90;;;;;;5088050;28;20396;-73
2023/09/16 00:36:57;;;;;;;0.40;0.40;;;12.40;99.90;;;;;;5078876;28;20044;-73
2023/09/16 00:39:23;;;;;;;0.50;0.50;;;12.40;99.90;;;;;;5089521;28;20887;-73
2023/09/16 00:41:50;;;;;;;0.40;0.40;;;12.30;99.90;;;;;;5086977;28;20048;-73
2023/09/16 00:44:15;;;;;;;0.50;0.50;;;12.30;99.90;;;;;;5091987;28;20439;-73
2023/09/16 00:46:41;;;;;;;0.50;0.50;;;12.30;99.90;;;;;;5087118;28;20036;-73
2023/09/16 00:49:07;;;;;;;0.40;0.40;;;12.30;99.90;;;;;;5080457;28;20047;-73
2023/09/16 00:51:34;;;;;;;0.40;0.40;;;12.20;99.90;;;;;;5084380;28;20065;-73
2023/09/16 00:54:00;;;;;;;0.30;0.30;;;12.20;99.90;;;;;;5088045;28;20048;-73
2023/09/16 00:56:29;;;;;;;0.50;0.50;;;12.20;99.90;;;;;;5090749;28;20044;-73
2023/09/16 00:58:57;;;;;;;0.52;0.52;;;12.10;99.90;;;;;;5095931;28;20046;-73
2023/09/16 01:01:24;;;;;;;0.28;0.28;;;12.10;99.90;;;;;;5089582;28;20040;-73
2023/09/16 01:03:50;;;;;;;0.40;0.40;;;12.10;99.90;;;;;;5091181;28;20123;-73
2023/09/16 01:06:16;;;;;;;0.55;0.55;;;12.10;99.90;;;;;;5084449;28;20142;-73
2023/09/16 01:08:44;;;;;;;2.47;0.60;;;12.10;99.90;;;;;;5090406;28;20130;-73
2023/09/16 01:11:10;;;;;;;0.60;0.60;;;12.00;99.90;;;;;;5090741;28;20501;-73
2023/09/16 01:13:37;;;;;;;0.35;0.35;;;12.00;99.90;;;;;;5094664;28;20505;-73
2023/09/16 01:16:25;;;;;;;0.40;0.40;;;12.00;99.90;;;;;;5086726;28;20051;-73
2023/09/16 01:19:05;;;;;;;0.30;0.30;;;12.00;99.90;;;;;;5094024;28;20045;-73
2023/09/16 01:21:31;;;;;;;0.30;0.30;;;12.00;99.90;;;;;;5066745;28;20040;-73
2023/09/16 01:24:17;;;;;;;0.40;0.40;;;12.00;99.90;;;;;;5067982;28;20048;-73
2023/09/16 01:26:43;;;;;;;0.40;0.40;;;12.00;99.90;;;;;;5065170;28;20045;-73
2023/09/16 01:29:09;;;;;;;0.70;0.70;;;12.00;99.90;;;;;;5058254;28;20095;-73
2023/09/16 01:31:36;;;;;;;0.30;0.30;;;12.00;99.90;;;;;;5064720;28;20048;-73
2023/09/16 01:34:08;;;;;;;0.52;0.52;;;11.90;99.90;;;;;;5070367;28;20494;-73
2023/09/16 01:36:35;;;;;;;0.30;0.30;;;11.90;99.90;;;;;;5067119;28;20045;-73
2023/09/16 01:39:05;;;;;;;0.40;0.40;;;12.00;99.90;;;;;;5082021;28;20078;-73
2023/09/16 01:41:34;;;;;;;0.40;0.40;;;12.00;99.90;;;;;;5064210;28;20048;-73
2023/09/16 01:44:04;;;;;;;0.40;0.40;;;11.90;99.90;;;;;;5063911;28;21107;-73
2023/09/16 01:46:29;;;;;;;0.40;0.40;;;11.90;99.90;;;;;;5068874;28;20076;-73
2023/09/16 01:48:55;;;;;;;0.60;0.60;;;11.90;99.90;;;;;;5065651;28;20083;-73
2023/09/16 01:51:22;;;;;;;0.32;0.32;;;11.90;99.90;;;;;;5066040;28;20048;-73
2023/09/16 01:53:47;;;;;;;0.30;0.30;;;11.90;99.90;;;;;;5077187;28;20117;-73
2023/09/16 01:56:13;;;;;;;0.40;0.40;;;11.90;99.90;;;;;;5067548;28;20481;-73
2023/09/16 01:58:39;;;;;;;0.40;0.40;;;11.80;99.90;;;;;;5064601;28;20054;-73
2023/09/16 02:01:09;;;;;;;0.40;0.40;;;11.80;99.90;;;;;;5067393;28;20047;-73
2023/09/16 02:03:35;;;;;;;0.40;0.40;;;11.80;99.90;;;;;;5059617;28;20044;-73
2023/09/16 02:06:01;;;;;;;0.47;0.40;;;11.80;99.90;;;;;;5065384;28;20052;-73
2023/09/16 02:08:26;;;;;;;0.30;0.30;;;11.70;99.90;;;;;;5064078;28;20486;-73
2023/09/16 02:10:52;;;;;;;0.50;0.50;;;11.80;99.90;;;;;;5069687;28;20428;-73
2023/09/16 02:13:17;;;;;;;0.63;0.63;;;11.70;99.90;;;;;;5070681;28;20101;-72
2023/09/16 02:15:43;;;;;;;0.50;0.50;;;11.70;99.90;;;;;;5071181;28;20055;-73
2023/09/16 02:18:09;;;;;;;0.30;0.30;;;11.70;99.90;;;;;;5073074;28;20495;-73
2023/09/16 02:20:34;;;;;;;0.32;0.32;;;11.60;99.90;;;;;;5066884;28;20064;-73
2023/09/16 02:23:02;;;;;;;0.30;0.30;;;11.60;99.90;;;;;;5064234;28;20053;-74
2023/09/16 02:25:28;;;;;;;0.43;0.43;;;11.60;99.90;;;;;;5067246;28;20512;-74
2023/09/16 02:27:53;;;;;;;0.60;0.60;;;11.60;99.90;;;;;;5058491;28;20032;-73
2023/09/16 02:30:19;;;;;;;0.30;0.30;;;11.60;99.90;;;;;;5079775;28;20511;-73
2023/09/16 02:32:45;;;;;;;0.35;0.35;;;11.60;99.90;;;;;;5069432;28;20048;-74
2023/09/16 02:35:10;;;;;;;0.40;0.40;;;11.60;99.90;;;;;;5060320;28;20127;-73
2023/09/16 02:37:36;;;;;;;0.40;0.40;;;11.60;99.90;;;;;;5074461;28;20123;-74
2023/09/16 02:40:02;;;;;;;0.30;0.30;;;11.60;99.90;;;;;;5070897;28;20088;-73
2023/09/16 02:42:28;;;;;;;0.30;0.30;;;11.60;99.90;;;;;;5067576;28;20048;-73
2023/09/16 02:44:53;;;;;;;0.30;0.30;;;11.60;99.90;;;;;;5064847;28;20040;-73
2023/09/16 02:47:20;;;;;;;0.40;0.40;;;11.50;99.90;;;;;;5064393;28;20044;-73
2023/09/16 02:49:46;;;;;;;0.32;0.32;;;11.50;99.90;;;;;;5070738;28;20049;-73
2023/09/16 02:52:15;;;;;;;0.40;0.40;;;11.50;99.90;;;;;;5059442;28;20045;-73
2023/09/16 02:54:41;;;;;;;0.40;0.40;;;11.50;99.90;;;;;;5066098;28;20060;-73
2023/09/16 02:57:06;;;;;;;0.40;0.40;;;11.40;99.90;;;;;;5069105;28;20512;-73
2023/09/16 02:59:33;;;;;;;0.40;0.40;;;11.50;99.90;;;;;;5068470;28;20056;-73
2023/09/16 03:01:58;;;;;;;0.40;0.40;;;11.50;99.90;;;;;;5066420;28;20075;-73
2023/09/16 03:04:24;;;;;;;0.40;0.40;;;11.50;99.90;;;;;;5073917;28;20486;-73
2023/09/16 03:06:50;;;;;;;0.40;0.40;;;11.50;99.90;;;;;;5078449;28;20121;-73
2023/09/16 03:09:17;;;;;;;0.30;0.30;;;11.40;99.90;;;;;;5067465;28;20045;-73
2023/09/16 03:11:42;;;;;;;0.32;0.32;;;11.40;99.90;;;;;;5068204;28;20067;-73
2023/09/16 03:14:08;;;;;;;0.30;0.30;;;11.40;99.90;;;;;;5082521;28;20049;-73
2023/09/16 03:16:35;;;;;;;0.30;0.30;;;11.40;99.90;;;;;;5068455;28;20044;-73
2023/09/16 03:19:01;;;;;;;0.30;0.30;;;11.30;99.90;;;;;;5085733;28;20512;-73
2023/09/16 03:21:26;;;;;;;0.38;0.38;;;11.30;99.90;;;;;;5088314;28;20052;-73
2023/09/16 03:23:52;;;;;;;0.40;0.40;;;11.30;99.90;;;;;;5088980;28;20055;-73
2023/09/16 03:26:17;;;;;;;0.40;0.40;;;11.20;99.90;;;;;;5086980;28;20087;-73
2023/09/16 03:28:45;;;;;;;0.30;0.30;;;11.20;99.90;;;;;;5087748;28;20076;-73
2023/09/16 03:31:11;;;;;;;0.30;0.30;;;11.20;99.90;;;;;;5084534;28;20055;-74
2023/09/16 03:33:37;;;;;;;0.35;0.35;;;11.10;99.90;;;;;;5087268;28;20033;-73
2023/09/16 03:36:04;;;;;;;0.40;0.40;;;11.10;99.90;;;;;;5088153;28;20823;-73
2023/09/16 03:38:32;;;;;;;0.40;0.40;;;11.10;99.90;;;;;;5087391;28;20076;-73
2023/09/16 03:40:58;;;;;;;0.33;0.33;;;11.00;99.90;;;;;;5085302;28;20048;-73
2023/09/16 03:43:25;;;;;;;0.50;0.50;;;11.00;99.90;;;;;;5088108;28;20366;-73
2023/09/16 03:45:50;;;;;;;0.40;0.40;;;11.00;99.90;;;;;;5079845;28;20127;-73
2023/09/16 03:48:16;;;;;;;0.40;0.40;;;11.00;99.90;;;;;;5086550;28;20610;-73
2023/09/16 03:50:42;;;;;;;0.40;0.40;;;11.00;99.90;;;;;;5087187;28;20044;-73
2023/09/16 03:53:09;;;;;;;0.30;0.30;;;10.90;99.90;;;;;;5081875;28;20082;-73
2023/09/16 03:55:35;;;;;;;0.30;0.30;;;10.90;99.90;;;;;;5087694;28;20062;-73
2023/09/16 03:58:01;;;;;;;0.40;0.40;;;10.90;99.90;;;;;;5087608;28;20058;-73
2023/09/16 04:00:28;;;;;;;0.40;0.40;;;10.80;99.90;;;;;;5085445;28;20040;-73
2023/09/16 04:02:53;;;;;;;0.40;0.40;;;10.80;99.90;;;;;;5078024;28;20032;-73
2023/09/16 04:05:19;;;;;;;0.35;0.35;;;10.80;99.90;;;;;;5086835;28;20047;-73
2023/09/16 04:07:45;;;;;;;0.30;0.30;;;10.80;99.90;;;;;;5087069;28;20089;-73
2023/09/16 04:10:11;;;;;;;0.40;0.40;;;10.80;99.90;;;;;;5086505;28;20056;-73
2023/09/16 04:12:37;;;;;;;0.38;0.38;;;10.70;99.90;;;;;;5088008;28;20401;-73
2023/09/16 04:15:03;;;;;;;0.40;0.40;;;10.80;99.90;;;;;;5087330;28;20048;-73
2023/09/16 04:17:30;;;;;;;0.50;0.50;;;10.70;99.90;;;;;;5084992;28;20036;-73
2023/09/16 04:19:56;;;;;;;0.30;0.30;;;10.70;99.90;;;;;;5108195;28;20059;-72
2023/09/16 04:22:23;;;;;;;0.35;0.35;;;10.70;99.90;;;;;;5092311;28;20420;-73
2023/09/16 04:24:48;;;;;;;0.40;0.40;;;10.70;99.90;;;;;;5077189;27;20039;-73
2023/09/16 04:27:14;;;;;;;0.30;0.30;;;10.60;99.90;;;;;;5116077;27;20607;-73
2023/09/16 04:29:40;;;;;;;0.40;0.40;;;10.60;99.90;;;;;;5111802;27;20500;-73
2023/09/16 04:32:06;;;;;;;0.40;0.40;;;10.60;99.90;;;;;;5090898;28;20116;-74
2023/09/16 04:34:32;;;;;;;0.45;0.45;;;10.60;99.90;;;;;;5109900;27;20134;-74
2023/09/16 04:36:59;;;;;;;0.30;0.30;;;10.60;99.90;;;;;;5090582;28;20044;-74
2023/09/16 04:39:26;;;;;;;0.40;0.40;;;10.60;99.90;;;;;;5093301;27;20054;-74
2023/09/16 04:41:53;;;;;;;0.40;0.40;;;10.60;99.90;;;;;;5097773;28;20512;-74
2023/09/16 04:44:23;;;;;;;0.50;0.50;;;10.60;99.90;;;;;;5087953;28;20044;-74
2023/09/16 04:46:53;;;;;;;0.40;0.40;;;10.60;99.90;;;;;;5091054;28;20434;-74
2023/09/16 04:49:22;;;;;;;0.30;0.30;;;10.60;99.90;;;;;;5096417;27;20043;-74
2023/09/16 04:51:48;;;;;;;0.47;0.47;;;10.50;99.90;;;;;;5097177;28;20039;-74
2023/09/16 04:54:14;;;;;;;0.50;0.50;;;10.50;99.90;;;;;;5108172;28;20429;-74
2023/09/16 04:56:39;;;;;;;0.50;0.50;;;10.50;99.90;;;;;;5107854;28;20043;-74
2023/09/16 04:59:05;;;;;;;0.60;0.60;;;10.50;99.90;;;;;;5102535;28;20574;-74
2023/09/16 05:01:31;;;;;;;0.63;0.45;;;10.50;99.90;;;;;;5107594;27;20138;-74
2023/09/16 05:03:58;;;;;;;0.63;0.63;;;10.50;99.90;;;;;;5089037;28;20127;-74
2023/09/16 05:06:23;;;;;;;1.70;0.50;;;10.50;99.90;;;;;;5110172;27;20054;-74
2023/09/16 05:08:49;;;;;;;1.13;1.13;;;10.50;99.90;;;;;;5090249;28;20047;-74
2023/09/16 05:11:15;;;;;;;0.40;0.40;;;10.50;99.90;;;;;;5107627;28;20537;-75
2023/09/16 05:13:41;;;;;;;0.32;0.32;;;10.50;99.90;;;;;;5092213;28;20071;-74
2023/09/16 05:16:10;;;;;;;0.40;0.40;;;10.50;99.90;;;;;;5095140;27;20447;-75
2023/09/16 05:18:36;;;;;;;0.40;0.40;;;10.50;99.90;;;;;;5111132;27;20983;-75
2023/09/16 05:21:02;;;;;;;0.30;0.30;;;10.50;99.90;;;;;;5105975;28;20055;-75
2023/09/16 05:23:30;;;;;;;0.30;0.30;;;10.50;99.90;;;;;;5093279;27;20046;-75
2023/09/16 05:25:56;;;;;;;0.40;0.40;;;10.50;99.90;;;;;;5088137;28;20944;-75
2023/09/16 05:28:22;;;;;;;0.40;0.40;;;10.50;99.90;;;;;;5093253;28;20056;-75
2023/09/16 05:30:48;;;;;;;0.50;0.50;;;10.50;99.90;;;;;;5097902;27;20036;-75
2023/09/16 05:33:14;;;;;;;0.60;0.60;;;10.50;99.90;;;;;;5099034;28;20446;-75
2023/09/16 05:35:40;;;;;;;0.40;0.40;;;10.50;99.90;;;;;;5091421;28;20048;-75
2023/09/16 05:38:06;;;;;;;0.50;0.50;;;10.50;99.90;;;;;;5101113;28;20857;-75
2023/09/16 05:40:32;;;;;;;0.95;0.95;;;10.60;99.90;;;;;;5092268;28;20142;-75
2023/09/16 05:42:58;;;;;;;0.70;0.70;;;10.50;99.90;;;;;;5089358;28;20458;-75
2023/09/16 05:45:24;;;;;;;0.55;0.55;;;10.50;99.90;;;;;;5086908;28;20079;-75
2023/09/16 05:47:50;;;;;;;0.68;0.68;;;10.50;99.90;;;;;;5105716;28;20404;-75
2023/09/16 05:50:16;;;;;;;0.95;0.95;;;10.50;99.90;;;;;;5095803;28;20059;-75
2023/09/16 05:52:43;;;;;;;0.60;0.60;;;10.50;99.90;;;;;;5099070;28;20051;-75
2023/09/16 05:55:09;;;;;;;0.60;0.60;;;10.50;99.90;;;;;;5088900;28;20139;-75
2023/09/16 05:57:35;;;;;;;0.32;0.32;;;10.50;99.90;;;;;;5094834;28;20047;-75
2023/09/16 06:00:01;;;;;;;0.80;0.80;;;10.50;99.90;;;;;;5091943;28;20089;-76
2023/09/16 06:02:27;;;;;;;0.47;0.47;;;10.50;99.90;;;;;;5087319;28;20048;-75
2023/09/16 06:04:53;;;;;;;0.75;0.75;;;10.50;99.90;;;;;;5092471;28;20044;-76
2023/09/16 06:07:19;;;;;;;0.30;0.30;;;10.60;99.90;;;;;;5104840;28;20046;-76
2023/09/16 06:09:45;;;;;;;0.50;0.50;;;10.70;99.90;;;;;;5076676;28;20048;-76
2023/09/16 06:12:11;;;;;;;0.70;0.70;;;10.80;99.90;;;;;;5087239;28;20043;-76
2023/09/16 06:14:39;;;;;;;0.60;0.60;;;10.80;99.90;;;;;;5091752;28;20052;-76
2023/09/16 06:17:05;;;;;;;0.50;0.50;;;10.90;99.90;;;;;;5111792;28;20047;-76
2023/09/16 06:19:32;;;;;;;0.50;0.50;;;10.90;99.90;;;;;;5093514;28;20040;-76
2023/09/16 06:21:57;;;;;;;0.52;0.52;;;11.00;99.90;;;;;;5093932;28;20914;-76
2023/09/16 06:24:24;;;;;;;0.40;0.40;;;11.00;99.90;;;;;;5090229;28;20047;-76
2023/09/16 06:26:50;;;;;;;0.60;0.60;;;11.10;99.90;;;;;;5086212;28;20224;-76
2023/09/16 06:29:16;;;;;;;0.60;0.60;;;11.20;99.90;;;;;;5086543;28;20055;-76
2023/09/16 06:31:41;;;;;;;0.50;0.50;;;11.20;99.90;;;;;;5098695;27;20407;-76
2023/09/16 06:34:07;;;;;;;0.70;0.70;;;11.30;99.90;;;;;;5102132;27;20080;-75
2023/09/16 06:36:33;;;;;;;0.45;0.45;;;11.40;99.90;;;;;;5082603;28;20403;-76
2023/09/16 06:38:59;;;;;;;0.50;0.50;;;11.50;99.90;;;;;;5097551;28;20096;-76
2023/09/16 06:41:26;;;;;;;0.50;0.50;;;11.60;99.90;;;;;;5091638;28;20062;-76
2023/09/16 06:43:51;;;;;;;0.65;0.65;;;11.80;99.90;;;;;;5090121;28;20509;-75
2023/09/16 06:46:18;;;;;;;0.50;0.50;;;11.90;99.90;;;;;;5097369;28;20082;-75
2023/09/16 06:48:45;;;;;;;0.60;0.60;;;12.10;99.90;;;;;;5094206;27;20039;-76
2023/09/16 06:51:10;;;;;;;0.65;0.65;;;12.30;99.90;;;;;;5092223;27;20055;-76
2023/09/16 06:53:36;;;;;;;0.40;0.40;;;12.50;99.90;;;;;;5078319;28;20772;-76
2023/09/16 06:56:02;;;;;;;0.57;0.57;;;12.70;99.90;;;;;;5091812;27;20119;-76
2023/09/16 06:58:28;;;;;;;0.50;0.50;;;12.90;99.90;;;;;;5101233;28;20032;-76
2023/09/16 07:00:54;;;;;;;0.52;0.52;;;13.00;99.90;;;;;;5087585;28;20499;-76
2023/09/16 07:03:21;;;;;;;1.20;1.13;;;13.20;99.90;;;;;;5095070;28;20069;-76
2023/09/16 07:05:47;;;;;;;0.50;0.50;;;13.30;99.90;;;;;;5090804;28;20043;-76
2023/09/16 07:08:14;;;;;;;0.65;0.65;;;13.40;99.90;;;;;;5098515;27;20509;-76
2023/09/16 07:10:39;;;;;;;0.80;0.80;;;13.60;99.90;;;;;;5087008;28;20122;-76
2023/09/16 07:13:06;;;;;;;0.63;0.63;;;13.80;99.90;;;;;;5108674;27;20176;-76
2023/09/16 07:15:32;;;;;;;0.50;0.50;;;14.00;99.90;;;;;;5092970;27;20139;-76
2023/09/16 07:17:57;;;;;;;0.75;0.75;;;14.20;99.90;;;;;;5093921;27;20431;-76
2023/09/16 07:20:23;;;;;;;1.05;1.05;;;14.50;99.90;;;;;;5096745;28;20041;-76
2023/09/16 07:22:51;;;;;;;0.52;0.52;;;14.70;99.90;;;;;;5074491;28;20044;-76
2023/09/16 07:25:16;;;;;;;0.85;0.85;;;14.90;99.90;;;;;;5087155;28;20043;-76
2023/09/16 07:27:42;;;;;;;0.50;0.50;;;15.20;99.90;;;;;;5093153;28;20050;-76
2023/09/16 07:30:08;;;;;;;0.75;0.75;;;15.40;99.90;;;;;;5093739;28;20098;-76
2023/09/16 07:32:36;;;;;;;0.57;0.57;;;15.60;99.90;;;;;;5092088;28;20055;-76
2023/09/16 07:35:01;;;;;;;1.13;0.65;;;15.80;99.90;;;;;;5078588;28;20056;-76
2023/09/16 07:37:27;;;;;;;0.50;0.50;;;16.10;99.90;;;;;;5108597;28;20480;-76
2023/09/16 07:39:54;;;;;;;0.80;0.80;;;16.30;99.90;;;;;;5091148;27;20047;-76
2023/09/16 07:42:20;;;;;;;0.68;0.68;;;16.50;99.90;;;;;;5092579;27;20095;-76
2023/09/16 07:44:45;;;;;;;0.40;0.40;;;16.70;99.90;;;;;;5091144;28;20035;-76
2023/09/16 07:47:11;;;;;;;0.50;0.50;;;16.80;99.90;;;;;;5099656;28;20454;-76
2023/09/16 07:49:37;;;;;;;0.93;0.93;;;16.90;99.90;;;;;;5089273;28;20050;-75
2023/09/16 07:52:03;;;;;;;1.23;1.23;;;16.90;99.90;;;;;;5091978;28;20047;-75
2023/09/16 07:54:31;;;;;;;0.55;0.55;;;17.00;99.90;;;;;;5092877;27;20116;-76
2023/09/16 07:56:56;;;;;;;0.50;0.50;;;17.10;99.90;;;;;;5090718;27;20050;-76
2023/09/16 07:59:22;;;;;;;0.50;0.50;;;17.10;99.90;;;;;;5094445;27;20047;-76
2023/09/16 08:01:49;;;;;;;0.90;0.90;;;17.10;99.90;;;;;;5099876;28;20040;-76
2023/09/16 08:04:14;;;;;;;1.15;1.05;;;17.20;99.90;;;;;;5103898;27;20046;-75
2023/09/16 08:06:40;;;;;;;1.50;0.95;;;17.30;99.90;;;;;;5095463;27;20044;-76
2023/09/16 08:09:06;;;;;;;0.70;0.70;;;17.30;99.90;;;;;;5094596;28;20473;-75
2023/09/16 08:11:32;;;;;;;1.30;1.20;;;17.30;99.90;;;;;;5086349;28;20047;-76
2023/09/16 08:13:57;;;;;;;1.33;1.25;;;17.30;99.90;;;;;;5094547;27;20043;-76
2023/09/16 08:16:23;;;;;;;0.65;0.65;;;17.40;99.90;;;;;;5102338;27;20079;-75
2023/09/16 08:18:49;;;;;;;1.05;0.90;;;17.40;99.90;;;;;;5093791;28;20048;-75
2023/09/16 08:21:14;;;;;;;0.75;0.75;;;17.50;99.90;;;;;;5108710;28;20056;-75
2023/09/16 08:23:41;;;;;;;0.60;0.60;;;17.70;99.90;;;;;;5091292;28;20047;-75
2023/09/16 08:26:07;;;;;;;0.57;0.57;;;17.80;99.90;;;;;;5092113;28;20055;-76
2023/09/16 08:28:35;;;;;;;0.47;0.47;;;17.90;99.90;;;;;;5095265;27;20040;-74
2023/09/16 08:31:02;;;;;;;1.38;1.38;;;18.00;99.90;;;;;;5107797;27;20632;-74
2023/09/16 08:33:33;;;;;;;0.90;0.90;;;18.10;99.90;;;;;;5089184;28;20107;-75
2023/09/16 08:35:59;;;;;;;1.30;1.25;;;18.30;99.90;;;;;;5096429;28;20053;-75
2023/09/16 08:38:24;;;;;;;0.60;0.60;;;18.50;99.90;;;;;;5101481;27;20819;-75
2023/09/16 08:41:14;;;;;;;0.80;0.80;;;18.70;99.90;;;;;;5095986;28;20040;-75
2023/09/16 08:43:41;;;;;;;0.70;0.70;;;18.80;99.90;;;;;;5105747;28;20058;-75
2023/09/16 08:46:10;;;;;;;0.52;0.52;;;19.00;99.90;;;;;;5095221;27;20051;-75
2023/09/16 08:48:40;;;;;;;0.90;0.90;;;19.30;99.90;;;;;;5091894;28;20075;-75
2023/09/16 08:51:11;;;;;;;1.23;0.95;;;19.50;99.90;;;;;;5089675;28;20100;-75
2023/09/16 08:53:42;;;;;;;0.60;0.60;;;19.70;99.90;;;;;;5108577;28;20047;-76
2023/09/16 08:56:08;;;;;;;1.08;1.08;;;19.90;99.90;;;;;;5087304;27;20055;-75
2023/09/16 08:58:39;;;;;;;0.73;0.73;;;20.00;99.90;;;;;;5087608;28;20051;-76
2023/09/16 09:01:05;;;;;;;1.13;1.08;;;20.10;99.90;;;;;;5096015;27;20054;-75
2023/09/16 09:03:32;;;;;;;1.35;1.25;;;20.20;99.90;;;;;;5071505;28;20036;-76
2023/09/16 09:05:58;;;;;;;0.73;0.70;;;20.40;99.90;;;;;;5072338;28;20084;-76
2023/09/16 09:08:24;;;;;;;1.20;1.13;;;20.50;99.90;;;;;;5088068;28;20043;-75
2023/09/16 09:10:51;;;;;;;0.82;0.82;;;20.70;99.90;;;;;;5085354;28;20036;-75
2023/09/16 09:13:18;;;;;;;0.97;0.97;;;20.90;99.90;;;;;;5110913;27;20048;-75
2023/09/16 09:15:47;;;;;;;0.75;0.75;;;21.10;99.90;;;;;;5109152;27;20050;-75
2023/09/16 09:18:18;;;;;;;0.57;0.57;;;21.40;99.90;;;;;;5100812;27;20063;-75
2023/09/16 09:20:44;;;;;;;0.50;0.50;;;21.60;99.90;;;;;;5096701;28;20051;-75
2023/09/16 09:23:11;;;;;;;0.40;0.40;;;21.90;99.90;;;;;;5102555;28;20227;-75
2023/09/16 09:25:41;;;;;;;0.85;0.85;;;22.10;99.90;;;;;;5086752;28;20048;-75
2023/09/16 09:28:07;;;;;;;0.50;0.50;;;22.30;99.90;;;;;;5072418;28;20051;-75
2023/09/16 09:30:33;;;;;;;0.50;0.50;;;22.40;99.90;;;;;;5088292;28;20836;-73
2023/09/16 09:32:59;;;;;;;0.73;0.70;;;22.50;99.90;;;;;;5119264;27;20071;-73
2023/09/16 09:35:27;;;;;;;1.63;0.77;;;22.60;99.90;;;;;;5089012;28;20644;-72
2023/09/16 09:37:53;;;;;;;0.68;0.68;;;22.70;99.90;;;;;;5089578;28;20621;-75
2023/09/16 09:40:19;;;;;;;0.40;0.40;;;22.70;99.90;;;;;;5091683;28;20047;-75
2023/09/16 09:42:47;;;;;;;0.50;0.50;;;22.70;99.90;;;;;;5100492;28;20415;-75
2023/09/16 09:45:14;;;;;;;0.43;0.43;;;22.70;99.90;;;;;;5118498;28;20142;-75
2023/09/16 09:47:41;;;;;;;0.50;0.50;;;22.60;99.90;;;;;;5097873;28;20195;-75
2023/09/16 09:50:11;;;;;;;1.00;1.00;;;22.50;99.90;;;;;;5112111;28;20039;-75
2023/09/16 09:52:37;;;;;;;0.43;0.43;;;22.60;99.90;;;;;;5101761;28;20308;-75
2023/09/16 09:55:03;;;;;;;0.90;0.90;;;22.70;99.90;;;;;;5107576;28;20043;-75
2023/09/16 09:57:29;;;;;;;0.60;0.60;;;22.80;99.90;;;;;;5117711;28;20039;-74
2023/09/16 09:59:56;;;;;;;0.50;0.50;;;23.00;99.90;;;;;;5101558;28;20043;-74
2023/09/16 10:02:26;;;;;;;0.93;0.90;;;23.10;99.90;;;;;;5099728;28;20055;-74
2023/09/16 10:05:02;;;;;;;0.70;0.70;;;23.20;99.90;;;;;;5102597;28;20071;-71
2023/09/16 10:07:28;;;;;;;0.60;0.60;;;23.30;99.90;;;;;;5091136;28;20043;-71
2023/09/16 10:09:55;;;;;;;0.85;0.85;;;23.40;99.90;;;;;;5092228;27;20089;-71
2023/09/16 10:12:21;;;;;;;0.40;0.40;;;23.50;99.90;;;;;;5092905;28;20499;-72
2023/09/16 10:14:48;;;;;;;0.52;0.52;;;23.70;99.90;;;;;;5092714;28;20484;-72
2023/09/16 10:17:14;;;;;;;0.50;0.50;;;23.70;99.90;;;;;;5115432;27;20122;-73
2023/09/16 10:19:40;;;;;;;0.65;0.65;;;23.80;99.90;;;;;;5102329;28;20052;-72
2023/09/16 10:22:06;;;;;;;0.93;0.93;;;23.90;99.90;;;;;;5090431;27;20059;-72
2023/09/16 10:24:31;;;;;;;1.15;1.15;;;24.10;99.90;;;;;;5104630;28;20171;-72
2023/09/16 10:27:05;;;;;;;1.00;1.00;;;24.40;99.90;;;;;;5092654;28;20067;-71
2023/09/16 10:29:31;;;;;;;0.77;0.60;;;24.50;99.90;;;;;;5098410;28;20050;-72
2023/09/16 10:31:58;;;;;;;0.50;0.50;;;24.80;99.90;;;;;;5097750;28;20055;-72
2023/09/16 10:34:24;;;;;;;0.57;0.57;;;25.00;99.90;;;;;;5113963;27;20044;-72
2023/09/16 10:36:50;;;;;;;0.40;0.40;;;25.20;99.90;;;;;;5094086;28;20519;-72
2023/09/16 10:39:17;;;;;;;0.68;0.68;;;25.40;99.90;;;;;;5086843;28;20036;-72
2023/09/16 10:41:44;;;;;;;0.55;0.55;;;25.50;99.90;;;;;;5097848;28;20047;-72
2023/09/16 10:44:12;;;;;;;1.30;1.25;;;25.70;99.90;;;;;;5090541;28;20047;-72
2023/09/16 10:46:38;;;;;;;0.50;0.50;;;25.80;99.90;;;;;;5098345;28;20054;-72
2023/09/16 10:49:04;;;;;;;1.00;1.00;;;25.90;99.90;;;;;;5100897;28;20067;-72
2023/09/16 10:51:39;;;;;;;2.40;1.02;;;26.10;99.90;;;;;;5096073;27;20032;-72
2023/09/16 10:54:29;;;;;;;0.65;0.65;;;26.10;99.90;;;;;;5092279;28;20062;-71
2023/09/16 10:56:59;;;;;;;0.80;0.75;;;26.20;99.90;;;;;;5096183;28;20165;-72
2023/09/16 10:59:28;;;;;;;0.98;0.98;;;26.10;99.90;;;;;;5084751;28;20048;-72
2023/09/16 11:02:05;;;;;;;0.50;0.50;;;26.10;99.90;;;;;;5092612;28;20051;-71
2023/09/16 11:04:32;;;;;;;1.02;0.95;;;26.20;99.90;;;;;;5096568;27;20039;-72
2023/09/16 11:06:58;;;;;;;0.40;0.40;;;26.40;99.90;;;;;;5091191;28;20044;-71
2023/09/16 11:09:25;;;;;;;0.57;0.57;;;26.50;99.90;;;;;;5101104;27;20047;-72
2023/09/16 11:11:51;;;;;;;1.60;1.50;;;26.50;99.90;;;;;;5091675;28;20086;-71
2023/09/16 11:14:19;;;;;;;0.50;0.50;;;26.50;99.90;;;;;;5119141;27;20055;-72
2023/09/16 11:16:48;;;;;;;0.80;0.80;;;26.60;99.90;;;;;;5096260;27;20586;-72
2023/09/16 11:19:15;;;;;;;0.68;0.68;;;26.70;99.90;;;;;;5082169;27;20427;-72
2023/09/16 11:21:43;;;;;;;0.73;0.73;;;26.80;99.90;;;;;;5099284;27;20077;-71
2023/09/16 11:24:10;;;;;;;0.30;0.30;;;26.90;99.90;;;;;;5088806;27;20075;-71
2023/09/16 11:26:36;;;;;;;;;;;26.90;99.90;;;;;;5100672;28;20043;-72
2023/09/16 11:29:12;;;;;;;0.50;0.50;;;26.80;99.90;;;;;;5094228;27;19923;-71
2023/09/16 11:31:38;;;;;;;0.40;0.40;;;27.00;99.90;;;;;;5087316;28;20054;-71
2023/09/16 11:34:06;;;;;;;0.98;0.98;;;27.10;99.90;;;;;;5093053;27;20039;-71
2023/09/16 11:36:34;;;;;;;0.40;0.40;;;27.40;99.90;;;;;;5073793;28;20122;-71
2023/09/16 11:39:06;;;;;;;0.70;0.70;;;27.60;99.90;;;;;;5091680;28;20101;-71
2023/09/16 11:41:32;;;;;;;0.50;0.50;;;27.70;99.90;;;;;;5109296;28;20051;-72
2023/09/16 11:43:59;;;;;;;0.88;0.88;;;27.80;99.90;;;;;;5090470;27;20043;-71
2023/09/16 11:46:25;;;;;;;0.50;0.50;;;28.00;99.90;;;;;;5098121;27;20074;-72
2023/09/16 11:48:56;;;;;;;1.15;1.15;;;28.00;99.90;;;;;;5107680;27;20492;-71
2023/09/16 11:51:26;;;;;;;0.45;0.45;;;27.90;99.90;;;;;;5087308;28;20048;-72
2023/09/16 11:53:53;;;;;;;0.40;0.40;;;27.80;99.90;;;;;;5112309;27;20461;-71
2023/09/16 11:56:31;;;;;;;0.70;0.70;;;27.60;99.90;;;;;;5098202;27;20137;-71
2023/09/16 11:59:01;;;;;;;;;;;27.60;99.90;;;;;;5108344;28;20531;-71
2023/09/16 12:01:36;;;;;;;0.65;0.65;;;27.50;99.90;;;;;;5088731;28;19923;-71
2023/09/16 12:04:04;;;;;;;0.60;0.60;;;27.40;99.90;;;;;;5102317;28;20126;-71
2023/09/16 12:06:31;;;;;;;0.70;0.70;;;27.40;99.90;;;;;;5108274;27;20078;-71
2023/09/16 12:08:59;;;;;;;0.60;0.60;;;27.40;99.90;;;;;;5084679;28;20040;-71
2023/09/16 12:11:26;;;;;;;0.40;0.40;;;27.40;99.90;;;;;;5097183;27;20082;-71
2023/09/16 12:13:53;;;;;;;0.60;0.60;;;27.40;99.90;;;;;;5091863;28;20093;-71
2023/09/16 12:16:19;;;;;;;0.50;0.50;;;27.40;99.90;;;;;;5106951;28;20043;-71
2023/09/16 12:18:45;;;;;;;0.55;0.55;;;27.50;99.90;;;;;;5108164;28;20057;-71
2023/09/16 12:21:12;;;;;;;0.63;0.63;;;27.60;99.90;;;;;;5108424;28;20039;-71
2023/09/16 12:23:42;;;;;;;0.55;0.55;;;27.70;99.40;;;;;;5085570;28;20050;-71
2023/09/16 12:26:11;;;;;;;0.35;0.35;;;27.80;99.90;;;;;;5089021;28;20092;-71
2023/09/16 12:28:38;;;;;;;0.40;0.40;;;27.90;99.90;;;;;;5115452;27;20048;-71
2023/09/16 12:31:08;;;;;;;0.80;0.80;;;28.00;99.90;;;;;;5090305;27;20547;-71
2023/09/16 12:33:48;;;;;;;0.70;0.70;;;28.00;99.90;;;;;;5097926;27;20442;-73
2023/09/16 12:36:20;;;;;;;0.60;0.60;;;28.10;99.70;;;;;;5090313;28;20059;-71
2023/09/16 12:38:46;;;;;;;0.77;0.77;;;28.20;99.90;;;;;;5110070;27;20059;-71
2023/09/16 12:41:13;;;;;;;0.95;0.95;;;28.20;97.50;;;;;;5084120;28;20056;-70
2023/09/16 12:43:40;;;;;;;0.50;0.50;;;28.10;97.00;;;;;;5089838;27;20516;-71
2023/09/16 12:46:06;;;;;;;0.40;0.40;;;28.00;97.40;;;;;;5107428;28;20043;-70